sensor_id;sensor_type;location;lat;lon;timestamp;P1;durP1;ratioP1;P2;durP2;ratioP2
76463;SDS011;65301;46.666;20.110;2022-12-07T00:00:15;27.92;;;16.63;;
76463;SDS011;65301;46.666;20.110;2022-12-07T00:03:17;32.55;;;17.40;;
76463;SDS011;65301;46.666;20.110;2022-12-07T00:06:19;34.22;;;18.83;;
76463;SDS011;65301;46.666;20.110;2022-12-07T00:09:21;29.90;;;15.93;;
76463;SDS011;65301;46.666;20.110;2022-12-07T00:12:23;32.27;;;15.90;;
76463;SDS011;65301;46.666;20.110;2022-12-07T00:15:24;23.85;;;11.95;;
76463;SDS011;65301;46.666;20.110;2022-12-07T00:18:26;17.15;;;10.40;;
76463;SDS011;65301;46.666;20.110;2022-12-07T00:21:30;16.98;;;10.15;;
76463;SDS011;65301;46.666;20.110;2022-12-07T00:24:33;17.17;;;10.03;;
76463;SDS011;65301;46.666;20.110;2022-12-07T00:27:35;18.20;;;10.73;;
76463;SDS011;65301;46.666;20.110;2022-12-07T00:30:36;19.92;;;11.10;;
76463;SDS011;65301;46.666;20.110;2022-12-07T00:33:38;29.83;;;14.20;;
76463;SDS011;65301;46.666;20.110;2022-12-07T00:36:40;23.05;;;12.55;;
76463;SDS011;65301;46.666;20.110;2022-12-07T00:39:42;21.63;;;12.77;;
76463;SDS011;65301;46.666;20.110;2022-12-07T00:42:43;21.83;;;11.70;;
76463;SDS011;65301;46.666;20.110;2022-12-07T00:45:45;20.17;;;11.95;;
76463;SDS011;65301;46.666;20.110;2022-12-07T00:48:47;19.45;;;11.40;;
76463;SDS011;65301;46.666;20.110;2022-12-07T00:51:50;18.48;;;10.65;;
76463;SDS011;65301;46.666;20.110;2022-12-07T00:54:52;17.17;;;11.10;;
76463;SDS011;65301;46.666;20.110;2022-12-07T00:57:53;17.93;;;10.43;;
76463;SDS011;65301;46.666;20.110;2022-12-07T01:00:55;17.27;;;9.73;;
76463;SDS011;65301;46.666;20.110;2022-12-07T01:04:01;18.17;;;11.13;;
76463;SDS011;65301;46.666;20.110;2022-12-07T01:07:04;16.98;;;10.68;;
76463;SDS011;65301;46.666;20.110;2022-12-07T01:10:07;18.03;;;10.63;;
76463;SDS011;65301;46.666;20.110;2022-12-07T01:13:09;18.33;;;10.67;;
76463;SDS011;65301;46.666;20.110;2022-12-07T01:16:12;18.75;;;11.60;;
76463;SDS011;65301;46.666;20.110;2022-12-07T01:19:15;17.02;;;10.45;;
76463;SDS011;65301;46.666;20.110;2022-12-07T01:22:17;20.88;;;12.32;;
76463;SDS011;65301;46.666;20.110;2022-12-07T01:25:18;20.87;;;12.37;;
76463;SDS011;65301;46.666;20.110;2022-12-07T01:28:20;21.00;;;11.93;;
76463;SDS011;65301;46.666;20.110;2022-12-07T01:31:23;20.50;;;11.10;;
76463;SDS011;65301;46.666;20.110;2022-12-07T01:34:26;21.98;;;12.15;;
76463;SDS011;65301;46.666;20.110;2022-12-07T01:37:27;23.80;;;12.70;;
76463;SDS011;65301;46.666;20.110;2022-12-07T01:40:29;17.10;;;10.47;;
76463;SDS011;65301;46.666;20.110;2022-12-07T01:43:32;18.97;;;10.77;;
76463;SDS011;65301;46.666;20.110;2022-12-07T01:46:34;20.00;;;11.30;;
76463;SDS011;65301;46.666;20.110;2022-12-07T01:49:37;15.63;;;10.18;;
76463;SDS011;65301;46.666;20.110;2022-12-07T01:52:42;16.33;;;9.93;;
76463;SDS011;65301;46.666;20.110;2022-12-07T01:55:49;16.67;;;9.57;;
76463;SDS011;65301;46.666;20.110;2022-12-07T01:58:53;19.47;;;11.30;;
76463;SDS011;65301;46.666;20.110;2022-12-07T02:01:58;19.98;;;12.77;;
76463;SDS011;65301;46.666;20.110;2022-12-07T02:05:03;19.33;;;11.50;;
76463;SDS011;65301;46.666;20.110;2022-12-07T02:08:05;18.65;;;11.48;;
76463;SDS011;65301;46.666;20.110;2022-12-07T02:11:08;16.80;;;10.10;;
76463;SDS011;65301;46.666;20.110;2022-12-07T02:14:10;18.23;;;11.00;;
76463;SDS011;65301;46.666;20.110;2022-12-07T02:20:32;18.27;;;10.68;;
76463;SDS011;65301;46.666;20.110;2022-12-07T02:23:40;17.15;;;10.80;;
76463;SDS011;65301;46.666;20.110;2022-12-07T02:30:42;20.97;;;10.47;;
76463;SDS011;65301;46.666;20.110;2022-12-07T02:33:56;15.63;;;9.50;;
76463;SDS011;65301;46.666;20.110;2022-12-07T02:37:10;17.95;;;10.63;;
76463;SDS011;65301;46.666;20.110;2022-12-07T02:40:27;17.00;;;10.38;;
76463;SDS011;65301;46.666;20.110;2022-12-07T02:43:35;14.17;;;9.63;;
76463;SDS011;65301;46.666;20.110;2022-12-07T02:46:42;18.33;;;10.50;;
76463;SDS011;65301;46.666;20.110;2022-12-07T02:49:48;15.50;;;10.02;;
76463;SDS011;65301;46.666;20.110;2022-12-07T02:52:51;18.65;;;11.25;;
76463;SDS011;65301;46.666;20.110;2022-12-07T02:55:52;14.35;;;8.95;;
76463;SDS011;65301;46.666;20.110;2022-12-07T03:05:59;17.60;;;10.10;;
76463;SDS011;65301;46.666;20.110;2022-12-07T03:09:13;22.25;;;12.38;;
76463;SDS011;65301;46.666;20.110;2022-12-07T03:12:22;23.10;;;13.10;;
76463;SDS011;65301;46.666;20.110;2022-12-07T03:15:31;19.37;;;11.17;;
76463;SDS011;65301;46.666;20.110;2022-12-07T03:18:43;16.47;;;9.93;;
76463;SDS011;65301;46.666;20.110;2022-12-07T03:21:51;19.42;;;11.18;;
76463;SDS011;65301;46.666;20.110;2022-12-07T03:24:58;17.42;;;10.38;;
76463;SDS011;65301;46.666;20.110;2022-12-07T03:28:05;17.13;;;9.73;;
76463;SDS011;65301;46.666;20.110;2022-12-07T03:31:11;18.33;;;10.03;;
76463;SDS011;65301;46.666;20.110;2022-12-07T03:34:29;16.20;;;10.13;;
76463;SDS011;65301;46.666;20.110;2022-12-07T03:40:54;28.88;;;14.70;;
76463;SDS011;65301;46.666;20.110;2022-12-07T03:44:07;21.20;;;12.15;;
76463;SDS011;65301;46.666;20.110;2022-12-07T03:50:43;23.20;;;12.30;;
76463;SDS011;65301;46.666;20.110;2022-12-07T03:53:57;17.55;;;9.95;;
76463;SDS011;65301;46.666;20.110;2022-12-07T03:57:10;19.92;;;11.00;;
76463;SDS011;65301;46.666;20.110;2022-12-07T04:00:15;21.50;;;11.63;;
76463;SDS011;65301;46.666;20.110;2022-12-07T04:03:17;20.30;;;11.27;;
76463;SDS011;65301;46.666;20.110;2022-12-07T04:06:19;17.27;;;9.80;;
76463;SDS011;65301;46.666;20.110;2022-12-07T04:09:21;18.75;;;10.73;;
76463;SDS011;65301;46.666;20.110;2022-12-07T04:12:23;16.35;;;10.20;;
76463;SDS011;65301;46.666;20.110;2022-12-07T04:15:25;17.80;;;10.27;;
76463;SDS011;65301;46.666;20.110;2022-12-07T04:18:26;13.97;;;8.60;;
76463;SDS011;65301;46.666;20.110;2022-12-07T04:21:28;17.93;;;9.40;;
76463;SDS011;65301;46.666;20.110;2022-12-07T04:24:30;15.80;;;8.98;;
76463;SDS011;65301;46.666;20.110;2022-12-07T04:27:31;16.95;;;9.70;;
76463;SDS011;65301;46.666;20.110;2022-12-07T04:30:33;18.35;;;10.70;;
76463;SDS011;65301;46.666;20.110;2022-12-07T04:33:35;14.63;;;9.37;;
76463;SDS011;65301;46.666;20.110;2022-12-07T04:36:37;16.93;;;9.43;;
76463;SDS011;65301;46.666;20.110;2022-12-07T04:39:40;15.63;;;9.75;;
76463;SDS011;65301;46.666;20.110;2022-12-07T04:42:42;16.50;;;10.13;;
76463;SDS011;65301;46.666;20.110;2022-12-07T04:45:47;16.48;;;9.30;;
76463;SDS011;65301;46.666;20.110;2022-12-07T04:48:49;15.07;;;8.97;;
76463;SDS011;65301;46.666;20.110;2022-12-07T04:51:52;16.50;;;10.30;;
76463;SDS011;65301;46.666;20.110;2022-12-07T04:54:53;17.63;;;10.50;;
76463;SDS011;65301;46.666;20.110;2022-12-07T04:57:55;18.00;;;10.38;;
76463;SDS011;65301;46.666;20.110;2022-12-07T05:00:57;17.52;;;10.88;;
76463;SDS011;65301;46.666;20.110;2022-12-07T05:03:58;18.03;;;10.33;;
76463;SDS011;65301;46.666;20.110;2022-12-07T05:07:00;25.83;;;11.83;;
76463;SDS011;65301;46.666;20.110;2022-12-07T05:10:02;23.92;;;12.25;;
76463;SDS011;65301;46.666;20.110;2022-12-07T05:13:04;24.17;;;12.05;;
76463;SDS011;65301;46.666;20.110;2022-12-07T05:16:06;22.75;;;12.90;;
76463;SDS011;65301;46.666;20.110;2022-12-07T05:19:10;18.17;;;10.23;;
76463;SDS011;65301;46.666;20.110;2022-12-07T05:22:11;23.80;;;14.57;;
76463;SDS011;65301;46.666;20.110;2022-12-07T05:25:14;22.00;;;11.65;;
76463;SDS011;65301;46.666;20.110;2022-12-07T05:28:16;21.33;;;12.40;;
76463;SDS011;65301;46.666;20.110;2022-12-07T05:31:18;19.45;;;11.02;;
76463;SDS011;65301;46.666;20.110;2022-12-07T05:34:20;20.33;;;11.37;;
76463;SDS011;65301;46.666;20.110;2022-12-07T05:37:22;23.73;;;11.80;;
76463;SDS011;65301;46.666;20.110;2022-12-07T05:40:23;25.25;;;13.20;;
76463;SDS011;65301;46.666;20.110;2022-12-07T05:43:25;27.25;;;15.27;;
76463;SDS011;65301;46.666;20.110;2022-12-07T05:46:27;63.05;;;41.92;;
76463;SDS011;65301;46.666;20.110;2022-12-07T05:49:28;27.07;;;16.20;;
76463;SDS011;65301;46.666;20.110;2022-12-07T05:52:30;25.63;;;13.40;;
76463;SDS011;65301;46.666;20.110;2022-12-07T05:55:32;21.20;;;12.77;;
76463;SDS011;65301;46.666;20.110;2022-12-07T05:58:34;22.02;;;12.80;;
76463;SDS011;65301;46.666;20.110;2022-12-07T06:01:56;25.02;;;12.80;;
76463;SDS011;65301;46.666;20.110;2022-12-07T06:04:59;23.20;;;13.53;;
76463;SDS011;65301;46.666;20.110;2022-12-07T06:08:01;23.60;;;13.07;;
76463;SDS011;65301;46.666;20.110;2022-12-07T06:11:06;31.52;;;15.35;;
76463;SDS011;65301;46.666;20.110;2022-12-07T06:14:26;27.63;;;14.70;;
76463;SDS011;65301;46.666;20.110;2022-12-07T06:17:28;31.15;;;16.40;;
76463;SDS011;65301;46.666;20.110;2022-12-07T06:20:29;34.93;;;16.77;;
76463;SDS011;65301;46.666;20.110;2022-12-07T06:23:31;28.30;;;15.07;;
76463;SDS011;65301;46.666;20.110;2022-12-07T06:26:33;21.95;;;12.93;;
76463;SDS011;65301;46.666;20.110;2022-12-07T06:29:35;25.00;;;14.23;;
76463;SDS011;65301;46.666;20.110;2022-12-07T06:32:37;25.38;;;13.07;;
76463;SDS011;65301;46.666;20.110;2022-12-07T06:35:39;33.17;;;15.87;;
76463;SDS011;65301;46.666;20.110;2022-12-07T06:38:51;29.27;;;14.57;;
76463;SDS011;65301;46.666;20.110;2022-12-07T06:41:54;27.67;;;14.50;;
76463;SDS011;65301;46.666;20.110;2022-12-07T06:45:03;27.58;;;14.05;;
76463;SDS011;65301;46.666;20.110;2022-12-07T06:48:11;22.83;;;12.65;;
76463;SDS011;65301;46.666;20.110;2022-12-07T06:51:13;24.80;;;12.77;;
76463;SDS011;65301;46.666;20.110;2022-12-07T06:54:15;24.10;;;13.83;;
76463;SDS011;65301;46.666;20.110;2022-12-07T06:57:18;19.75;;;11.65;;
76463;SDS011;65301;46.666;20.110;2022-12-07T07:00:21;23.17;;;12.48;;
76463;SDS011;65301;46.666;20.110;2022-12-07T07:03:23;29.33;;;15.82;;
76463;SDS011;65301;46.666;20.110;2022-12-07T07:06:25;27.60;;;14.30;;
76463;SDS011;65301;46.666;20.110;2022-12-07T07:09:30;23.77;;;12.27;;
76463;SDS011;65301;46.666;20.110;2022-12-07T07:12:31;32.45;;;14.50;;
76463;SDS011;65301;46.666;20.110;2022-12-07T07:15:33;25.08;;;13.73;;
76463;SDS011;65301;46.666;20.110;2022-12-07T07:18:35;20.30;;;11.45;;
76463;SDS011;65301;46.666;20.110;2022-12-07T07:21:37;18.37;;;10.87;;
76463;SDS011;65301;46.666;20.110;2022-12-07T07:24:39;22.03;;;11.03;;
76463;SDS011;65301;46.666;20.110;2022-12-07T07:27:41;16.42;;;10.43;;
76463;SDS011;65301;46.666;20.110;2022-12-07T07:30:43;17.98;;;10.85;;
76463;SDS011;65301;46.666;20.110;2022-12-07T07:33:46;16.92;;;9.82;;
76463;SDS011;65301;46.666;20.110;2022-12-07T07:36:48;17.60;;;10.73;;
76463;SDS011;65301;46.666;20.110;2022-12-07T07:39:49;18.80;;;11.63;;
76463;SDS011;65301;46.666;20.110;2022-12-07T07:42:52;19.20;;;11.48;;
76463;SDS011;65301;46.666;20.110;2022-12-07T07:45:54;19.52;;;11.80;;
76463;SDS011;65301;46.666;20.110;2022-12-07T07:48:57;15.90;;;10.35;;
76463;SDS011;65301;46.666;20.110;2022-12-07T07:52:15;16.43;;;10.43;;
76463;SDS011;65301;46.666;20.110;2022-12-07T07:55:17;16.60;;;9.23;;
76463;SDS011;65301;46.666;20.110;2022-12-07T07:58:19;18.10;;;11.23;;
76463;SDS011;65301;46.666;20.110;2022-12-07T08:01:22;16.65;;;10.25;;
76463;SDS011;65301;46.666;20.110;2022-12-07T08:04:23;16.42;;;10.32;;
76463;SDS011;65301;46.666;20.110;2022-12-07T08:07:26;18.00;;;11.33;;
76463;SDS011;65301;46.666;20.110;2022-12-07T08:10:29;28.33;;;18.50;;
76463;SDS011;65301;46.666;20.110;2022-12-07T08:13:33;22.98;;;15.65;;
76463;SDS011;65301;46.666;20.110;2022-12-07T08:16:35;37.50;;;19.92;;
76463;SDS011;65301;46.666;20.110;2022-12-07T08:19:36;36.20;;;20.67;;
76463;SDS011;65301;46.666;20.110;2022-12-07T08:22:38;21.93;;;14.90;;
76463;SDS011;65301;46.666;20.110;2022-12-07T08:25:40;23.40;;;14.30;;
76463;SDS011;65301;46.666;20.110;2022-12-07T08:28:42;24.23;;;14.27;;
76463;SDS011;65301;46.666;20.110;2022-12-07T08:31:44;22.08;;;14.35;;
76463;SDS011;65301;46.666;20.110;2022-12-07T08:34:46;20.55;;;13.68;;
76463;SDS011;65301;46.666;20.110;2022-12-07T08:37:47;17.53;;;11.90;;
76463;SDS011;65301;46.666;20.110;2022-12-07T08:40:56;14.33;;;10.20;;
76463;SDS011;65301;46.666;20.110;2022-12-07T08:43:58;18.05;;;10.27;;
76463;SDS011;65301;46.666;20.110;2022-12-07T08:47:01;13.75;;;9.23;;
76463;SDS011;65301;46.666;20.110;2022-12-07T08:50:06;13.10;;;9.13;;
76463;SDS011;65301;46.666;20.110;2022-12-07T08:53:10;13.20;;;8.47;;
76463;SDS011;65301;46.666;20.110;2022-12-07T08:56:12;17.93;;;9.87;;
76463;SDS011;65301;46.666;20.110;2022-12-07T08:59:14;25.05;;;12.93;;
76463;SDS011;65301;46.666;20.110;2022-12-07T09:02:17;18.30;;;11.40;;
76463;SDS011;65301;46.666;20.110;2022-12-07T09:05:18;15.38;;;9.55;;
76463;SDS011;65301;46.666;20.110;2022-12-07T09:08:21;18.30;;;11.93;;
76463;SDS011;65301;46.666;20.110;2022-12-07T09:11:32;15.90;;;10.37;;
76463;SDS011;65301;46.666;20.110;2022-12-07T09:15:12;16.05;;;11.50;;
76463;SDS011;65301;46.666;20.110;2022-12-07T09:19:17;16.05;;;10.48;;
76463;SDS011;65301;46.666;20.110;2022-12-07T09:22:19;17.77;;;11.23;;
76463;SDS011;65301;46.666;20.110;2022-12-07T09:25:21;14.13;;;9.00;;
76463;SDS011;65301;46.666;20.110;2022-12-07T09:28:23;15.23;;;9.43;;
76463;SDS011;65301;46.666;20.110;2022-12-07T09:31:25;13.45;;;9.65;;
76463;SDS011;65301;46.666;20.110;2022-12-07T09:34:30;12.38;;;8.55;;
76463;SDS011;65301;46.666;20.110;2022-12-07T09:37:33;12.95;;;9.60;;
76463;SDS011;65301;46.666;20.110;2022-12-07T09:40:37;15.73;;;10.80;;
76463;SDS011;65301;46.666;20.110;2022-12-07T09:44:02;12.40;;;9.43;;
76463;SDS011;65301;46.666;20.110;2022-12-07T09:47:11;18.33;;;10.55;;
76463;SDS011;65301;46.666;20.110;2022-12-07T09:50:14;15.32;;;8.60;;
76463;SDS011;65301;46.666;20.110;2022-12-07T09:53:26;16.27;;;10.15;;
76463;SDS011;65301;46.666;20.110;2022-12-07T09:56:30;14.17;;;9.17;;
76463;SDS011;65301;46.666;20.110;2022-12-07T09:59:32;11.07;;;8.53;;
76463;SDS011;65301;46.666;20.110;2022-12-07T10:02:38;12.55;;;9.63;;
76463;SDS011;65301;46.666;20.110;2022-12-07T10:05:44;12.23;;;8.80;;
76463;SDS011;65301;46.666;20.110;2022-12-07T10:08:50;14.40;;;10.25;;
76463;SDS011;65301;46.666;20.110;2022-12-07T10:11:59;21.33;;;11.23;;
76463;SDS011;65301;46.666;20.110;2022-12-07T10:15:03;24.17;;;14.00;;
76463;SDS011;65301;46.666;20.110;2022-12-07T10:18:21;19.83;;;11.98;;
76463;SDS011;65301;46.666;20.110;2022-12-07T10:21:37;15.18;;;10.57;;
76463;SDS011;65301;46.666;20.110;2022-12-07T10:24:40;17.52;;;12.35;;
76463;SDS011;65301;46.666;20.110;2022-12-07T10:27:44;18.97;;;12.30;;
76463;SDS011;65301;46.666;20.110;2022-12-07T10:31:00;10.23;;;7.70;;
76463;SDS011;65301;46.666;20.110;2022-12-07T10:34:12;9.57;;;7.22;;
76463;SDS011;65301;46.666;20.110;2022-12-07T10:37:23;8.93;;;7.05;;
76463;SDS011;65301;46.666;20.110;2022-12-07T10:40:33;9.23;;;7.60;;
76463;SDS011;65301;46.666;20.110;2022-12-07T10:43:46;13.87;;;7.63;;
76463;SDS011;65301;46.666;20.110;2022-12-07T11:06:39;7.20;;;5.75;;
76463;SDS011;65301;46.666;20.110;2022-12-07T11:10:15;8.07;;;6.93;;
76463;SDS011;65301;46.666;20.110;2022-12-07T11:13:38;8.30;;;6.65;;
76463;SDS011;65301;46.666;20.110;2022-12-07T11:16:59;7.20;;;6.07;;
76463;SDS011;65301;46.666;20.110;2022-12-07T11:23:25;12.80;;;11.55;;
76463;SDS011;65301;46.666;20.110;2022-12-07T11:26:53;8.98;;;7.50;;
76463;SDS011;65301;46.666;20.110;2022-12-07T11:30:20;9.43;;;7.93;;
76463;SDS011;65301;46.666;20.110;2022-12-07T11:33:47;9.57;;;7.07;;
76463;SDS011;65301;46.666;20.110;2022-12-07T11:36:55;9.00;;;6.50;;
76463;SDS011;65301;46.666;20.110;2022-12-07T11:40:20;15.93;;;11.80;;
76463;SDS011;65301;46.666;20.110;2022-12-07T11:46:31;10.48;;;8.40;;
76463;SDS011;65301;46.666;20.110;2022-12-07T11:50:03;11.37;;;8.60;;
76463;SDS011;65301;46.666;20.110;2022-12-07T11:53:24;13.67;;;9.43;;
76463;SDS011;65301;46.666;20.110;2022-12-07T11:56:31;12.45;;;10.25;;
76463;SDS011;65301;46.666;20.110;2022-12-07T11:59:38;23.27;;;14.88;;
76463;SDS011;65301;46.666;20.110;2022-12-07T12:05:59;11.23;;;9.70;;
76463;SDS011;65301;46.666;20.110;2022-12-07T12:19:20;8.95;;;7.05;;
76463;SDS011;65301;46.666;20.110;2022-12-07T12:22:38;8.03;;;6.93;;
76463;SDS011;65301;46.666;20.110;2022-12-07T12:25:46;8.67;;;6.80;;
76463;SDS011;65301;46.666;20.110;2022-12-07T12:29:01;9.55;;;7.45;;
76463;SDS011;65301;46.666;20.110;2022-12-07T12:39:40;10.77;;;7.37;;
76463;SDS011;65301;46.666;20.110;2022-12-07T12:43:50;9.97;;;7.23;;
76463;SDS011;65301;46.666;20.110;2022-12-07T12:46:55;8.00;;;6.75;;
76463;SDS011;65301;46.666;20.110;2022-12-07T12:50:33;9.30;;;7.32;;
76463;SDS011;65301;46.666;20.110;2022-12-07T12:53:39;11.48;;;7.10;;
76463;SDS011;65301;46.666;20.110;2022-12-07T13:09:22;9.68;;;7.88;;
76463;SDS011;65301;46.666;20.110;2022-12-07T13:12:27;11.70;;;8.40;;
76463;SDS011;65301;46.666;20.110;2022-12-07T13:18:38;10.40;;;7.82;;
76463;SDS011;65301;46.666;20.110;2022-12-07T13:21:41;8.93;;;6.72;;
76463;SDS011;65301;46.666;20.110;2022-12-07T13:24:44;14.73;;;10.52;;
76463;SDS011;65301;46.666;20.110;2022-12-07T13:27:59;11.07;;;8.13;;
76463;SDS011;65301;46.666;20.110;2022-12-07T13:31:14;12.90;;;9.00;;
76463;SDS011;65301;46.666;20.110;2022-12-07T13:34:39;11.68;;;8.63;;
76463;SDS011;65301;46.666;20.110;2022-12-07T13:37:42;12.73;;;8.82;;
76463;SDS011;65301;46.666;20.110;2022-12-07T13:40:58;14.23;;;9.60;;
76463;SDS011;65301;46.666;20.110;2022-12-07T13:44:20;13.23;;;9.43;;
76463;SDS011;65301;46.666;20.110;2022-12-07T13:47:41;19.77;;;13.10;;
76463;SDS011;65301;46.666;20.110;2022-12-07T13:50:52;47.67;;;26.80;;
76463;SDS011;65301;46.666;20.110;2022-12-07T13:54:06;19.73;;;11.88;;
76463;SDS011;65301;46.666;20.110;2022-12-07T13:57:11;11.40;;;8.13;;
76463;SDS011;65301;46.666;20.110;2022-12-07T14:00:15;13.60;;;9.20;;
76463;SDS011;65301;46.666;20.110;2022-12-07T14:03:25;16.27;;;10.57;;
76463;SDS011;65301;46.666;20.110;2022-12-07T14:06:29;19.70;;;12.05;;
76463;SDS011;65301;46.666;20.110;2022-12-07T14:09:31;18.63;;;12.38;;
76463;SDS011;65301;46.666;20.110;2022-12-07T14:12:35;23.95;;;17.45;;
76463;SDS011;65301;46.666;20.110;2022-12-07T14:15:38;21.37;;;16.77;;
76463;SDS011;65301;46.666;20.110;2022-12-07T14:18:40;21.97;;;13.33;;
76463;SDS011;65301;46.666;20.110;2022-12-07T14:21:43;19.15;;;12.55;;
76463;SDS011;65301;46.666;20.110;2022-12-07T14:24:48;17.02;;;10.95;;
76463;SDS011;65301;46.666;20.110;2022-12-07T14:27:51;15.63;;;10.15;;
76463;SDS011;65301;46.666;20.110;2022-12-07T14:30:58;17.27;;;10.73;;
76463;SDS011;65301;46.666;20.110;2022-12-07T14:34:00;19.10;;;9.47;;
76463;SDS011;65301;46.666;20.110;2022-12-07T14:37:02;25.48;;;15.43;;
76463;SDS011;65301;46.666;20.110;2022-12-07T14:40:05;23.75;;;14.05;;
76463;SDS011;65301;46.666;20.110;2022-12-07T14:43:14;19.85;;;11.85;;
76463;SDS011;65301;46.666;20.110;2022-12-07T14:46:17;42.80;;;21.57;;
76463;SDS011;65301;46.666;20.110;2022-12-07T14:49:20;40.67;;;22.13;;
76463;SDS011;65301;46.666;20.110;2022-12-07T14:52:37;39.95;;;19.27;;
76463;SDS011;65301;46.666;20.110;2022-12-07T14:56:00;32.50;;;17.52;;
76463;SDS011;65301;46.666;20.110;2022-12-07T14:59:02;33.60;;;18.42;;
76463;SDS011;65301;46.666;20.110;2022-12-07T15:02:04;35.57;;;19.20;;
76463;SDS011;65301;46.666;20.110;2022-12-07T15:05:06;38.13;;;19.27;;
76463;SDS011;65301;46.666;20.110;2022-12-07T15:08:16;39.40;;;21.15;;
76463;SDS011;65301;46.666;20.110;2022-12-07T15:11:18;40.53;;;21.25;;
76463;SDS011;65301;46.666;20.110;2022-12-07T15:14:19;52.63;;;24.15;;
76463;SDS011;65301;46.666;20.110;2022-12-07T15:17:21;53.93;;;25.57;;
76463;SDS011;65301;46.666;20.110;2022-12-07T15:20:32;66.07;;;28.40;;
76463;SDS011;65301;46.666;20.110;2022-12-07T15:23:34;64.90;;;25.70;;
76463;SDS011;65301;46.666;20.110;2022-12-07T15:26:36;57.60;;;24.92;;
76463;SDS011;65301;46.666;20.110;2022-12-07T15:29:38;41.30;;;19.83;;
76463;SDS011;65301;46.666;20.110;2022-12-07T15:32:40;42.70;;;20.07;;
76463;SDS011;65301;46.666;20.110;2022-12-07T15:35:43;31.30;;;15.23;;
76463;SDS011;65301;46.666;20.110;2022-12-07T15:38:45;26.52;;;14.48;;
76463;SDS011;65301;46.666;20.110;2022-12-07T15:42:07;31.55;;;15.27;;
76463;SDS011;65301;46.666;20.110;2022-12-07T15:45:09;31.65;;;16.05;;
76463;SDS011;65301;46.666;20.110;2022-12-07T15:48:11;29.77;;;14.63;;
76463;SDS011;65301;46.666;20.110;2022-12-07T15:51:31;31.80;;;14.63;;
76463;SDS011;65301;46.666;20.110;2022-12-07T15:54:33;28.70;;;15.50;;
76463;SDS011;65301;46.666;20.110;2022-12-07T15:57:35;25.40;;;12.63;;
76463;SDS011;65301;46.666;20.110;2022-12-07T16:00:38;21.33;;;11.82;;
76463;SDS011;65301;46.666;20.110;2022-12-07T16:03:40;25.00;;;14.63;;
76463;SDS011;65301;46.666;20.110;2022-12-07T16:06:42;25.63;;;12.80;;
76463;SDS011;65301;46.666;20.110;2022-12-07T16:09:45;25.42;;;12.15;;
76463;SDS011;65301;46.666;20.110;2022-12-07T16:12:47;25.85;;;11.65;;
76463;SDS011;65301;46.666;20.110;2022-12-07T16:15:49;17.42;;;9.95;;
76463;SDS011;65301;46.666;20.110;2022-12-07T16:18:51;23.90;;;11.20;;
76463;SDS011;65301;46.666;20.110;2022-12-07T16:21:53;20.73;;;11.77;;
76463;SDS011;65301;46.666;20.110;2022-12-07T16:24:54;19.90;;;10.57;;
76463;SDS011;65301;46.666;20.110;2022-12-07T16:27:56;19.25;;;10.55;;
76463;SDS011;65301;46.666;20.110;2022-12-07T16:31:05;25.40;;;11.10;;
76463;SDS011;65301;46.666;20.110;2022-12-07T16:34:09;24.43;;;12.03;;
76463;SDS011;65301;46.666;20.110;2022-12-07T16:37:10;15.03;;;9.73;;
76463;SDS011;65301;46.666;20.110;2022-12-07T16:40:15;18.42;;;10.05;;
76463;SDS011;65301;46.666;20.110;2022-12-07T16:43:17;19.75;;;10.70;;
76463;SDS011;65301;46.666;20.110;2022-12-07T16:46:18;19.67;;;10.38;;
76463;SDS011;65301;46.666;20.110;2022-12-07T16:49:20;16.43;;;9.97;;
76463;SDS011;65301;46.666;20.110;2022-12-07T16:52:22;16.87;;;10.87;;
76463;SDS011;65301;46.666;20.110;2022-12-07T16:55:23;22.90;;;12.43;;
76463;SDS011;65301;46.666;20.110;2022-12-07T16:58:25;20.63;;;11.93;;
76463;SDS011;65301;46.666;20.110;2022-12-07T17:01:27;20.13;;;12.48;;
76463;SDS011;65301;46.666;20.110;2022-12-07T17:04:29;28.20;;;14.23;;
76463;SDS011;65301;46.666;20.110;2022-12-07T17:07:31;40.13;;;24.60;;
76463;SDS011;65301;46.666;20.110;2022-12-07T17:10:34;27.60;;;15.88;;
76463;SDS011;65301;46.666;20.110;2022-12-07T17:13:37;31.08;;;17.33;;
76463;SDS011;65301;46.666;20.110;2022-12-07T17:16:57;31.83;;;16.80;;
76463;SDS011;65301;46.666;20.110;2022-12-07T17:20:01;34.37;;;19.90;;
76463;SDS011;65301;46.666;20.110;2022-12-07T17:23:05;28.77;;;16.83;;
76463;SDS011;65301;46.666;20.110;2022-12-07T17:26:08;27.63;;;15.75;;
76463;SDS011;65301;46.666;20.110;2022-12-07T17:29:17;30.85;;;16.40;;
76463;SDS011;65301;46.666;20.110;2022-12-07T17:32:20;31.35;;;15.48;;
76463;SDS011;65301;46.666;20.110;2022-12-07T17:35:21;36.47;;;15.90;;
76463;SDS011;65301;46.666;20.110;2022-12-07T17:38:23;30.63;;;15.03;;
76463;SDS011;65301;46.666;20.110;2022-12-07T17:41:26;39.38;;;18.05;;
76463;SDS011;65301;46.666;20.110;2022-12-07T17:44:47;42.25;;;21.77;;
76463;SDS011;65301;46.666;20.110;2022-12-07T17:47:49;41.22;;;22.33;;
76463;SDS011;65301;46.666;20.110;2022-12-07T17:50:50;44.77;;;24.27;;
76463;SDS011;65301;46.666;20.110;2022-12-07T17:54:22;49.73;;;25.10;;
76463;SDS011;65301;46.666;20.110;2022-12-07T17:57:23;47.63;;;25.08;;
76463;SDS011;65301;46.666;20.110;2022-12-07T18:00:25;54.67;;;24.17;;
76463;SDS011;65301;46.666;20.110;2022-12-07T18:03:27;42.38;;;22.52;;
76463;SDS011;65301;46.666;20.110;2022-12-07T18:06:29;37.87;;;20.23;;
76463;SDS011;65301;46.666;20.110;2022-12-07T18:09:31;38.27;;;19.37;;
76463;SDS011;65301;46.666;20.110;2022-12-07T18:12:32;39.75;;;19.90;;
76463;SDS011;65301;46.666;20.110;2022-12-07T18:15:34;36.40;;;19.33;;
76463;SDS011;65301;46.666;20.110;2022-12-07T18:18:36;36.92;;;20.08;;
76463;SDS011;65301;46.666;20.110;2022-12-07T18:21:39;33.90;;;19.23;;
76463;SDS011;65301;46.666;20.110;2022-12-07T18:24:41;40.70;;;19.27;;
76463;SDS011;65301;46.666;20.110;2022-12-07T18:27:43;37.17;;;19.15;;
76463;SDS011;65301;46.666;20.110;2022-12-07T18:30:45;38.30;;;20.73;;
76463;SDS011;65301;46.666;20.110;2022-12-07T18:34:14;38.30;;;18.95;;
76463;SDS011;65301;46.666;20.110;2022-12-07T18:37:17;36.90;;;17.07;;
76463;SDS011;65301;46.666;20.110;2022-12-07T18:40:19;38.23;;;19.17;;
76463;SDS011;65301;46.666;20.110;2022-12-07T18:43:21;31.38;;;17.42;;
76463;SDS011;65301;46.666;20.110;2022-12-07T18:46:25;34.35;;;18.90;;
76463;SDS011;65301;46.666;20.110;2022-12-07T18:49:28;36.65;;;19.67;;
76463;SDS011;65301;46.666;20.110;2022-12-07T18:52:30;43.73;;;19.67;;
76463;SDS011;65301;46.666;20.110;2022-12-07T18:55:33;40.60;;;19.80;;
76463;SDS011;65301;46.666;20.110;2022-12-07T18:58:35;44.38;;;21.92;;
76463;SDS011;65301;46.666;20.110;2022-12-07T19:01:37;40.53;;;21.73;;
76463;SDS011;65301;46.666;20.110;2022-12-07T19:04:39;41.72;;;22.63;;
76463;SDS011;65301;46.666;20.110;2022-12-07T19:07:42;39.93;;;22.00;;
76463;SDS011;65301;46.666;20.110;2022-12-07T19:10:44;37.83;;;21.20;;
76463;SDS011;65301;46.666;20.110;2022-12-07T19:13:47;36.70;;;22.20;;
76463;SDS011;65301;46.666;20.110;2022-12-07T19:16:50;43.88;;;22.65;;
76463;SDS011;65301;46.666;20.110;2022-12-07T19:19:53;41.17;;;23.02;;